Погода Масюкина 2 недели

Витебская область, Белоруссия

22 мая-04 июня
  • 22мая
    Сегодня
    +14°
    +24°
    Пасмурно, ливень
    ВремяПогодаТемператураВлажностьДавлениеВетер, м/сВероятность осадков
    00:00Облачно с прояснениями+15°C86 %749 мм2.6 м/с2 %
    03:00Облачно с прояснениями+14°C89 %749 мм2.4 м/с2 %
    06:00Облачно с прояснениями+14°C90 %749 мм2.7 м/с2 %
    09:00Ясно и безоблачно+19°C77 %750 мм0.9 м/с1 %
    12:00Практически безоблачно+22°C64 %750 мм2.9 м/с9 %
    15:00Пасмурно, ливень+23°C56 %749 мм2.8 м/с53 %
    18:00Небольшая облачность, ливень+19°C82 %750 мм1.5 м/с64 %
    21:00Облачно с прояснениями+18°C90 %750 мм0.8 м/с7 %
  • 23мая
    Четверг
    +12°
    +24°
    Ясно и безоблачно
    ВремяПогодаТемператураВлажностьДавлениеВетер, м/сВероятность осадков
    00:00Практически безоблачно+16°C92 %750 мм3.0 м/с2 %
    03:00Ясно и безоблачно+15°C94 %751 мм3.3 м/с2 %
    06:00Ясно и безоблачно+15°C94 %752 мм4.1 м/с1 %
    09:00Ясно и безоблачно+18°C74 %752 мм1.6 м/с2 %
    12:00Ясно и безоблачно+22°C55 %753 мм5.7 м/с3 %
    15:00Ясно и безоблачно+23°C49 %753 мм5.5 м/с6 %
    18:00Ясно и безоблачно+22°C49 %752 мм4.9 м/с9 %
    21:00Ясно и безоблачно+19°C57 %754 мм1.2 м/с2 %
  • 24мая
    Пятница
    +11°
    +22°
    Ясно и безоблачно
    ВремяПогодаТемператураВлажностьДавлениеВетер, м/сВероятность осадков
    00:00Ясно и безоблачно+16°C63 %755 мм4.5 м/с2 %
    03:00Ясно и безоблачно+14°C66 %755 мм4.5 м/с2 %
    06:00Ясно и безоблачно+13°C66 %756 мм4.6 м/с1 %
    09:00Ясно и безоблачно+16°C56 %757 мм1.8 м/с2 %
    12:00Ясно и безоблачно+20°C49 %757 мм4.5 м/с2 %
    15:00Ясно и безоблачно+22°C46 %756 мм4.4 м/с2 %
    18:00Ясно и безоблачно+21°C46 %756 мм4.3 м/с2 %
    21:00Ясно и безоблачно+17°C59 %755 мм0.9 м/с2 %
  • 25мая
    Суббота
    +11°
    +24°
    Ясно и безоблачно
    ВремяПогодаТемператураВлажностьДавлениеВетер, м/сВероятность осадков
    00:00Ясно и безоблачно+14°C68 %756 мм3.6 м/с2 %
    03:00Ясно и безоблачно+13°C74 %756 мм3.7 м/с2 %
    06:00Ясно и безоблачно+12°C74 %755 мм3.9 м/с2 %
    09:00Ясно и безоблачно+17°C59 %756 мм1.3 м/с6 %
    12:00Ясно и безоблачно+22°C48 %755 мм3.5 м/с5 %
    15:00Ясно и безоблачно+23°C41 %755 мм4.2 м/с9 %
    18:00Ясно и безоблачно+22°C43 %754 мм3.8 м/с9 %
    21:00Ясно и безоблачно+18°C60 %754 мм0.8 м/с6 %
  • 26мая
    Воскресенье
    +10°
    +24°
    Облачно с прояснениями
    ВремяПогодаТемператураВлажностьДавлениеВетер, м/сВероятность осадков
    00:00Ясно и безоблачно+15°C65 %754 мм3.1 м/с2 %
    03:00Ясно и безоблачно+12°C66 %754 мм2.6 м/с5 %
    06:00Ясно и безоблачно+12°C71 %754 мм2.6 м/с4 %
    09:00Ясно и безоблачно+18°C59 %755 мм0.5 м/с3 %
    12:00Облачно с прояснениями+22°C37 %755 мм2.0 м/с4 %
    15:00Облачно с прояснениями+23°C39 %755 мм2.2 м/с8 %
    18:00Ясно и безоблачно+24°C41 %754 мм1.9 м/с7 %
    21:00Ясно и безоблачно+18°C70 %754 мм0.1 м/с11 %
Мы используем cookies
Соглашаюсь